Time;durP1;ratioP1;P1;durP2;ratioP2;P2;SDS_P1;SDS_P2;PMS_P1;PMS_P2;Temp;Humidity;BMP_temperature;BMP_pressure;BME280_temperature;BME280_humidity;BME280_pressure;Samples;Min_cycle;Max_cycle;Signal;HPM_P1;HPM_P2
2023/07/04 00:02:00;;;;;;;9.27;3.30;;;;;;;17.24;56.04;100152.06;4907064;29;20040;-78
2023/07/04 00:04:29;;;;;;;10.00;3.17;;;;;;;17.22;55.96;100154.75;4878691;29;20045;-81
2023/07/04 00:06:56;;;;;;;9.10;3.88;;;;;;;17.20;55.76;100154.84;4886338;29;20087;-78
2023/07/04 00:09:22;;;;;;;10.52;3.40;;;;;;;17.26;55.93;100152.84;4890464;29;20047;-77
2023/07/04 00:11:50;;;;;;;11.35;3.85;;;;;;;17.21;56.26;100155.72;4902578;29;20040;-78
2023/07/04 00:14:16;;;;;;;7.18;3.35;;;;;;;17.16;56.86;100153.25;4886763;29;20037;-78
2023/07/04 00:16:43;;;;;;;10.73;3.75;;;;;;;17.14;57.75;100164.84;4869232;29;20070;-81
2023/07/04 00:19:10;;;;;;;8.75;3.53;;;;;;;17.05;58.00;100162.59;4884123;29;22139;-80
2023/07/04 00:21:38;;;;;;;8.63;3.70;;;;;;;17.07;57.99;100169.53;4892290;29;20040;-79
2023/07/04 00:24:05;;;;;;;11.98;4.00;;;;;;;17.05;57.57;100157.31;4889108;29;20067;-79
2023/07/04 00:26:32;;;;;;;8.57;4.05;;;;;;;17.01;58.63;100159.22;4885607;29;20112;-79
2023/07/04 00:28:58;;;;;;;12.48;3.55;;;;;;;16.99;57.97;100169.03;4868023;29;20052;-78
2023/07/04 00:31:25;;;;;;;6.05;3.03;;;;;;;16.97;58.11;100192.91;4881083;29;20127;-80
2023/07/04 00:33:52;;;;;;;6.57;2.97;;;;;;;16.88;60.60;100203.81;4880583;29;20040;-78
2023/07/04 00:36:20;;;;;;;7.68;3.83;;;;;;;16.68;63.40;100194.94;4867865;29;20044;-79
2023/07/04 00:38:51;;;;;;;10.32;2.70;;;;;;;16.48;67.31;100189.63;4886730;29;20041;-80
2023/07/04 00:41:28;;;;;;;5.88;2.88;;;;;;;16.27;69.48;100210.72;4880865;29;20052;-80
2023/07/04 00:44:08;;;;;;;6.22;2.47;;;;;;;16.14;71.56;100214.72;4886352;29;20044;-78
2023/07/04 00:46:45;;;;;;;6.72;2.97;;;;;;;15.99;73.42;100222.31;4867178;29;20052;-80
2023/07/04 00:49:26;;;;;;;5.60;2.80;;;;;;;15.88;74.32;100230.66;4861506;29;20060;-78
2023/07/04 00:52:03;;;;;;;12.40;2.95;;;;;;;15.82;76.06;100243.22;4889903;29;20816;-81
2023/07/04 00:54:43;;;;;;;9.00;2.75;;;;;;;15.73;77.00;100240.91;4888125;29;20111;-81
2023/07/04 00:57:10;;;;;;;9.38;2.45;;;;;;;15.67;77.77;100247.25;4887049;29;20126;-80
2023/07/04 00:59:43;;;;;;;7.53;2.50;;;;;;;15.59;78.79;100247.56;4895781;29;20028;-79
2023/07/04 01:02:12;;;;;;;7.53;2.60;;;;;;;15.52;79.78;100249.53;4889359;29;20075;-78
2023/07/04 01:04:39;;;;;;;10.68;2.83;;;;;;;15.45;80.29;100245.41;4897978;29;20041;-78
2023/07/04 01:07:41;;;;;;;7.38;2.05;;;;;;;15.42;81.16;100250.78;4882501;29;20071;-79
2023/07/04 01:10:13;;;;;;;6.93;2.30;;;;;;;15.38;80.76;100244.78;4883433;29;20056;-79
2023/07/04 01:12:41;;;;;;;7.20;2.55;;;;;;;15.35;81.37;100244.88;4880374;29;20044;-79
2023/07/04 01:15:09;;;;;;;5.55;2.38;;;;;;;15.26;81.60;100253.09;4897856;29;20089;-79
2023/07/04 01:17:36;;;;;;;3.38;1.67;;;;;;;15.23;81.29;100253.22;4882878;29;20052;-78
2023/07/04 01:20:06;;;;;;;6.30;2.10;;;;;;;15.22;81.10;100260.25;4884633;29;20053;-79
2023/07/04 01:23:04;;;;;;;4.50;1.70;;;;;;;15.20;80.22;100258.56;4874801;29;20059;-79
2023/07/04 01:26:14;;;;;;;6.90;1.90;;;;;;;15.18;79.38;100274.47;4895780;29;20520;-78
2023/07/04 01:28:41;;;;;;;2.25;1.13;;;;;;;15.10;79.63;100275.66;4890972;29;20048;-81
2023/07/04 01:31:08;;;;;;;3.90;1.00;;;;;;;15.01;79.81;100279.44;4885999;29;20117;-82
2023/07/04 01:33:35;;;;;;;1.00;0.90;;;;;;;14.97;79.99;100281.31;4886541;29;20045;-80
2023/07/04 01:36:02;;;;;;;2.75;1.30;;;;;;;14.93;80.14;100281.47;4862027;29;20528;-79
2023/07/04 01:38:30;;;;;;;4.45;1.00;;;;;;;14.89;80.03;100292.13;4890560;29;20049;-79
2023/07/04 01:40:57;;;;;;;1.85;0.55;;;;;;;14.87;79.98;100280.78;4884733;29;20064;-79
2023/07/04 01:43:23;;;;;;;2.83;0.50;;;;;;;14.76;79.83;100298.69;4876450;29;20044;-79
2023/07/04 01:45:50;;;;;;;0.82;0.35;;;;;;;14.59;81.56;100306.22;4865289;29;20111;-85
2023/07/04 01:48:17;;;;;;;0.88;0.65;;;;;;;14.37;87.84;100306.91;4876935;29;20049;-83
2023/07/04 01:50:44;;;;;;;2.20;0.35;;;;;;;13.95;93.64;100317.75;4885272;29;20048;-79
2023/07/04 01:53:11;;;;;;;2.40;0.60;;;;;;;13.63;98.76;100311.66;4899652;29;20048;-79
2023/07/04 01:55:37;;;;;;;3.47;0.90;;;;;;;13.35;100.00;100313.22;4883852;29;20040;-83
2023/07/04 01:58:03;;;;;;;0.65;0.50;;;;;;;13.13;100.00;100293.63;4878762;29;20040;-83
2023/07/04 02:00:31;;;;;;;1.42;0.63;;;;;;;13.07;100.00;100278.88;4873685;29;20086;-78
2023/07/04 02:02:58;;;;;;;0.60;0.40;;;;;;;13.03;100.00;100280.72;4873987;29;20048;-78
2023/07/04 02:05:25;;;;;;;1.90;0.73;;;;;;;13.02;100.00;100267.63;4884909;29;20128;-78
2023/07/04 02:07:51;;;;;;;2.45;0.63;;;;;;;13.04;100.00;100268.44;4885212;29;20039;-78
2023/07/04 02:10:18;;;;;;;1.38;0.68;;;;;;;13.04;100.00;100278.97;4882023;29;20045;-78
2023/07/04 02:12:44;;;;;;;1.15;0.50;;;;;;;13.04;100.00;100282.44;4881664;29;20051;-78
2023/07/04 02:15:11;;;;;;;1.98;0.80;;;;;;;13.07;100.00;100277.13;4885240;29;20080;-79
2023/07/04 02:17:38;;;;;;;0.95;0.85;;;;;;;13.07;100.00;100273.63;4885881;29;20096;-79
2023/07/04 02:20:06;;;;;;;1.15;0.88;;;;;;;13.04;100.00;100269.31;4883900;29;20052;-79
2023/07/04 02:22:33;;;;;;;0.68;0.60;;;;;;;13.02;100.00;100276.38;4900818;29;20044;-78
2023/07/04 02:25:00;;;;;;;2.22;1.02;;;;;;;12.99;100.00;100265.94;4877338;29;20643;-79
2023/07/04 02:27:26;;;;;;;3.08;0.82;;;;;;;13.02;100.00;100275.50;4897921;29;20040;-78
2023/07/04 02:29:53;;;;;;;0.55;0.50;;;;;;;13.04;100.00;100260.56;4885105;29;20040;-78
2023/07/04 02:32:19;;;;;;;3.03;0.40;;;;;;;13.06;100.00;100264.88;4883969;29;20658;-78
2023/07/04 02:34:46;;;;;;;2.47;1.13;;;;;;;13.05;100.00;100255.28;4865104;29;20445;-77
2023/07/04 02:37:12;;;;;;;1.75;0.68;;;;;;;13.07;100.00;100260.47;4880905;29;20049;-77
2023/07/04 02:39:38;;;;;;;3.03;0.93;;;;;;;13.07;100.00;100266.63;4880740;29;20032;-80
2023/07/04 02:42:05;;;;;;;1.50;0.68;;;;;;;13.10;100.00;100270.91;4877400;29;20040;-77
2023/07/04 02:44:33;;;;;;;2.85;0.70;;;;;;;13.11;100.00;100274.41;4877653;29;20041;-77
2023/07/04 02:46:59;;;;;;;0.77;0.55;;;;;;;13.15;100.00;100265.53;4892128;29;20044;-77
2023/07/04 02:49:25;;;;;;;0.80;0.55;;;;;;;13.17;100.00;100276.88;4872933;29;20106;-77
2023/07/04 02:51:52;;;;;;;1.50;0.50;;;;;;;13.21;100.00;100273.28;4882911;29;20399;-78
2023/07/04 02:54:18;;;;;;;1.80;0.50;;;;;;;13.22;100.00;100278.50;4885077;29;20040;-80
2023/07/04 02:56:45;;;;;;;2.17;0.68;;;;;;;13.26;100.00;100281.91;4886459;29;20060;-80
2023/07/04 02:59:11;;;;;;;1.13;0.80;;;;;;;13.25;100.00;100277.53;4862432;29;20763;-78
2023/07/04 03:01:38;;;;;;;2.40;0.98;;;;;;;13.23;100.00;100274.06;4877765;29;20116;-78
2023/07/04 03:04:05;;;;;;;3.47;0.98;;;;;;;13.24;100.00;100274.06;4897938;29;20052;-79
2023/07/04 03:06:31;;;;;;;6.90;0.70;;;;;;;13.25;100.00;100282.81;4886634;29;20428;-79
2023/07/04 03:08:58;;;;;;;3.22;0.70;;;;;;;13.27;99.98;100288.91;4880440;29;20487;-78
2023/07/04 03:11:24;;;;;;;3.40;0.55;;;;;;;13.27;99.92;100296.78;4865445;29;20404;-82
2023/07/04 03:13:51;;;;;;;0.57;0.50;;;;;;;13.31;99.81;100284.41;4875594;29;20071;-81
2023/07/04 03:16:17;;;;;;;1.90;0.40;;;;;;;13.32;99.90;100304.53;4879258;29;20053;-79
2023/07/04 03:18:44;;;;;;;2.17;1.00;;;;;;;13.33;99.55;100299.22;4897993;29;20068;-80
2023/07/04 03:21:10;;;;;;;1.60;0.52;;;;;;;13.34;99.71;100310.63;4868874;29;20040;-82
2023/07/04 03:23:37;;;;;;;1.55;0.40;;;;;;;13.34;99.47;100315.88;4890378;29;20096;-80
2023/07/04 03:26:04;;;;;;;0.93;0.52;;;;;;;13.38;99.53;100321.03;4903312;28;20036;-81
2023/07/04 03:28:30;;;;;;;3.58;0.60;;;;;;;13.40;99.26;100328.88;4889464;29;20040;-80
2023/07/04 03:30:57;;;;;;;1.33;0.50;;;;;;;13.39;100.00;100324.53;4887404;29;20032;-79
2023/07/04 03:33:23;;;;;;;2.83;0.93;;;;;;;13.31;100.00;100326.44;4889291;29;20123;-82
2023/07/04 03:35:50;;;;;;;2.90;0.90;;;;;;;13.25;100.00;100319.59;4874717;29;20043;-83
2023/07/04 03:38:16;;;;;;;1.65;0.50;;;;;;;13.16;100.00;100319.84;4899683;29;20368;-80
2023/07/04 03:40:43;;;;;;;0.73;0.65;;;;;;;13.10;100.00;100317.34;4887789;29;20098;-79
2023/07/04 03:43:09;;;;;;;0.90;0.60;;;;;;;13.06;100.00;100308.69;4882949;29;20036;-80
2023/07/04 03:45:36;;;;;;;2.67;0.45;;;;;;;13.06;100.00;100304.31;4883967;29;20760;-80
2023/07/04 03:48:02;;;;;;;3.03;0.98;;;;;;;13.06;100.00;100312.19;4882594;29;20080;-80
2023/07/04 03:50:29;;;;;;;2.45;1.10;;;;;;;13.09;100.00;100313.88;4868426;29;20373;-84
2023/07/04 03:52:56;;;;;;;3.20;0.95;;;;;;;13.09;100.00;100311.25;4883738;29;20045;-82
2023/07/04 03:55:22;;;;;;;3.17;0.93;;;;;;;13.06;100.00;100314.81;4879234;29;20053;-85
2023/07/04 03:57:50;;;;;;;3.30;1.13;;;;;;;13.01;100.00;100316.69;4891271;29;20052;-82
2023/07/04 04:00:17;;;;;;;1.67;0.88;;;;;;;12.94;100.00;100309.00;4884495;29;20144;-79
2023/07/04 04:02:43;;;;;;;6.50;2.05;;;;;;;12.88;100.00;100302.97;4887622;29;20055;-81
2023/07/04 04:05:12;;;;;;;6.25;0.80;;;;;;;12.88;100.00;100316.13;4878125;29;20160;-80
2023/07/04 04:07:38;;;;;;;4.57;1.02;;;;;;;12.93;100.00;100318.63;4888050;29;20060;-81
2023/07/04 04:10:05;;;;;;;3.55;1.30;;;;;;;13.04;100.00;100323.63;4882960;29;20074;-80
2023/07/04 04:12:32;;;;;;;2.92;0.90;;;;;;;13.16;100.00;100332.97;4868918;29;20426;-82
2023/07/04 04:14:58;;;;;;;3.70;0.82;;;;;;;13.24;100.00;100326.63;4881746;29;20033;-80
2023/07/04 04:17:25;;;;;;;3.47;0.95;;;;;;;13.24;100.00;100318.75;4879943;29;20041;-80
2023/07/04 04:19:51;;;;;;;3.58;1.27;;;;;;;13.28;100.00;100322.13;4884130;29;20051;-80
2023/07/04 04:22:18;;;;;;;1.73;0.63;;;;;;;13.33;100.00;100320.25;4880799;29;20064;-82
2023/07/04 04:24:46;;;;;;;1.77;1.00;;;;;;;13.37;100.00;100326.34;4876487;29;20048;-82
2023/07/04 04:27:13;;;;;;;3.05;0.93;;;;;;;13.44;100.00;100320.03;4869496;29;20064;-80
2023/07/04 04:29:40;;;;;;;1.67;0.90;;;;;;;13.42;100.00;100313.94;4887367;29;20055;-80
2023/07/04 04:32:07;;;;;;;1.75;1.30;;;;;;;13.48;100.00;100318.16;4870278;29;20040;-80
2023/07/04 04:34:33;;;;;;;1.92;0.80;;;;;;;13.45;100.00;100327.00;4893147;29;20036;-79
2023/07/04 04:36:59;;;;;;;8.05;2.00;;;;;;;13.45;100.00;100328.78;4869515;29;20372;-80
2023/07/04 04:39:29;;;;;;;1.52;0.85;;;;;;;13.40;100.00;100332.38;4879269;29;20049;-81
2023/07/04 04:41:56;;;;;;;2.17;0.70;;;;;;;13.36;100.00;100335.09;4893310;29;20047;-82
2023/07/04 04:44:22;;;;;;;4.22;0.80;;;;;;;13.29;100.00;100323.88;4867959;29;20041;-81
2023/07/04 04:46:49;;;;;;;5.72;1.20;;;;;;;13.34;100.00;100343.03;4882629;29;20040;-79
2023/07/04 04:49:21;;;;;;;2.53;1.00;;;;;;;13.34;99.71;100332.50;4882625;29;20037;-80
2023/07/04 04:51:51;;;;;;;2.67;1.05;;;;;;;13.42;98.78;100337.59;4884577;29;20048;-80
2023/07/04 04:54:18;;;;;;;2.85;0.85;;;;;;;13.52;97.80;100339.09;4867792;29;20053;-80
2023/07/04 04:56:45;;;;;;;4.10;1.13;;;;;;;13.66;95.09;100340.47;4869548;29;20060;-78
2023/07/04 04:59:12;;;;;;;5.10;1.30;;;;;;;13.80;95.10;100348.88;4901182;29;20051;-80
2023/07/04 05:01:39;;;;;;;3.08;1.00;;;;;;;13.91;93.86;100343.31;4883372;29;20078;-79
2023/07/04 05:04:05;;;;;;;1.25;0.82;;;;;;;14.03;92.54;100352.66;4894782;29;20036;-80
2023/07/04 05:06:32;;;;;;;2.90;0.80;;;;;;;14.09;92.62;100348.97;4882728;29;20118;-80
2023/07/04 05:08:59;;;;;;;3.67;1.27;;;;;;;14.11;91.78;100341.91;4880825;29;20059;-83
2023/07/04 05:11:26;;;;;;;14.38;2.38;;;;;;;14.15;90.98;100352.28;4866510;29;20077;-78
2023/07/04 05:13:52;;;;;;;3.85;1.27;;;;;;;14.23;89.62;100347.66;4874820;29;20047;-78
2023/07/04 05:16:21;;;;;;;5.20;0.70;;;;;;;14.34;89.25;100350.00;4886170;29;20041;-82
2023/07/04 05:18:49;;;;;;;6.47;1.42;;;;;;;14.44;89.16;100347.94;4897947;29;20076;-78
2023/07/04 05:21:20;;;;;;;2.30;0.68;;;;;;;14.41;89.15;100345.41;4882064;29;20047;-79
2023/07/04 05:23:48;;;;;;;4.32;0.95;;;;;;;14.40;89.31;100354.19;4882703;29;20050;-78
2023/07/04 05:26:22;;;;;;;1.23;0.68;;;;;;;14.37;89.22;100352.53;4882516;29;20037;-81
2023/07/04 05:28:52;;;;;;;1.48;0.70;;;;;;;14.32;89.75;100348.31;4899919;29;20051;-79
2023/07/04 05:31:24;;;;;;;2.22;0.52;;;;;;;14.26;90.10;100356.38;4882021;29;20044;-78
2023/07/04 05:33:53;;;;;;;3.30;1.33;;;;;;;14.29;90.13;100357.16;4871832;29;20388;-79
2023/07/04 05:36:26;;;;;;;3.58;0.70;;;;;;;14.32;90.35;100354.44;4885183;29;20391;-80
2023/07/04 05:38:59;;;;;;;2.75;0.75;;;;;;;14.36;90.28;100369.22;4871903;29;20044;-82
2023/07/04 05:41:27;;;;;;;4.10;1.45;;;;;;;14.47;90.06;100371.56;4884025;29;20053;-80
2023/07/04 05:43:59;;;;;;;1.70;0.88;;;;;;;14.62;89.56;100372.00;4887949;29;20048;-81
2023/07/04 05:46:26;;;;;;;2.75;0.80;;;;;;;14.69;88.77;100370.94;4882721;29;20112;-78
2023/07/04 05:48:52;;;;;;;1.52;1.35;;;;;;;14.67;88.66;100378.03;4881585;29;20059;-82
2023/07/04 05:51:21;;;;;;;2.75;0.77;;;;;;;14.65;89.26;100374.56;4878764;29;20079;-79
2023/07/04 05:53:50;;;;;;;8.60;1.40;;;;;;;14.68;89.23;100372.72;4865822;29;20131;-85
2023/07/04 05:56:30;;;;;;;4.43;1.23;;;;;;;14.67;89.11;100378.88;4858371;29;20041;-82
2023/07/04 05:59:00;;;;;;;3.53;1.33;;;;;;;14.68;89.28;100372.72;4880620;29;20055;-77
2023/07/04 06:01:34;;;;;;;1.80;1.10;;;;;;;14.61;90.10;100376.41;4871975;29;20072;-78
2023/07/04 06:04:03;;;;;;;1.60;0.93;;;;;;;14.63;90.07;100386.91;4878148;29;20040;-78
2023/07/04 06:07:01;;;;;;;8.80;1.25;;;;;;;14.88;89.10;100371.22;4874830;29;20047;-76
2023/07/04 06:09:28;;;;;;;3.58;1.17;;;;;;;14.99;88.19;100377.03;4885660;29;20036;-77
2023/07/04 06:11:54;;;;;;;2.40;0.85;;;;;;;15.00;88.07;100394.56;4880915;29;20044;-77
2023/07/04 06:14:27;;;;;;;2.33;0.93;;;;;;;15.10;87.76;100383.75;4878115;29;20041;-77
2023/07/04 06:16:55;;;;;;;2.28;1.13;;;;;;;15.14;87.55;100391.50;4866169;29;20044;-77
2023/07/04 06:19:22;;;;;;;2.13;1.10;;;;;;;15.17;86.73;100386.09;4880806;29;20112;-77
2023/07/04 06:21:48;;;;;;;3.90;1.33;;;;;;;15.07;86.91;100397.00;4881020;29;20041;-78
2023/07/04 06:24:17;;;;;;;2.38;0.85;;;;;;;14.97;87.15;100392.03;4880034;29;20039;-78
2023/07/04 06:26:45;;;;;;;3.83;1.13;;;;;;;14.93;86.68;100392.16;4851519;29;20055;-78
2023/07/04 06:29:12;;;;;;;3.75;0.88;;;;;;;15.00;87.08;100393.69;4879024;29;20080;-79
2023/07/04 06:31:41;;;;;;;5.20;0.95;;;;;;;15.16;86.90;100399.34;4860924;29;20040;-78
2023/07/04 06:34:08;;;;;;;3.35;0.90;;;;;;;15.29;85.48;100402.44;4880775;29;20036;-78
2023/07/04 06:36:36;;;;;;;4.57;0.90;;;;;;;15.34;85.10;100413.72;4877283;29;20059;-79
2023/07/04 06:39:03;;;;;;;1.67;1.20;;;;;;;15.33;85.09;100407.59;4876994;29;20056;-78
2023/07/04 06:41:30;;;;;;;5.90;0.95;;;;;;;15.31;84.75;100412.03;4881747;29;20059;-78
2023/07/04 06:43:56;;;;;;;5.07;1.38;;;;;;;15.30;84.61;100407.66;4883420;29;20033;-78
2023/07/04 06:46:23;;;;;;;2.67;1.50;;;;;;;15.48;84.37;100408.84;4864547;29;20049;-80
2023/07/04 06:48:50;;;;;;;4.03;1.48;;;;;;;15.76;82.93;100410.56;4884897;29;20036;-78
2023/07/04 06:51:19;;;;;;;6.57;1.90;;;;;;;15.84;81.94;100420.91;4890263;29;20104;-78
2023/07/04 06:53:46;;;;;;;3.33;1.33;;;;;;;15.92;81.68;100424.13;4883790;29;20044;-80
2023/07/04 06:56:23;;;;;;;5.70;1.50;;;;;;;15.92;81.00;100421.47;4869911;29;20049;-80
2023/07/04 06:58:53;;;;;;;1.83;1.02;;;;;;;15.89;81.52;100424.19;4884382;29;20056;-77
2023/07/04 07:01:23;;;;;;;6.07;1.42;;;;;;;15.92;82.00;100434.69;4891414;29;20044;-82
2023/07/04 07:03:50;;;;;;;3.13;1.38;;;;;;;15.97;81.91;100431.84;4887348;29;20586;-77
2023/07/04 07:06:17;;;;;;;2.42;1.88;;;;;;;15.98;81.78;100421.28;4862409;29;20061;-79
2023/07/04 07:08:44;;;;;;;3.60;1.83;;;;;;;16.00;81.81;100429.13;4854947;29;20138;-78
2023/07/04 07:11:18;;;;;;;8.13;2.38;;;;;;;15.94;81.74;100431.97;4881642;29;20091;-80
2023/07/04 07:13:46;;;;;;;6.72;2.10;;;;;;;15.91;81.79;100422.38;4883517;29;20499;-82
2023/07/04 07:16:19;;;;;;;4.68;2.22;;;;;;;15.83;82.41;100433.22;4872605;29;20095;-79
2023/07/04 07:18:47;;;;;;;3.95;2.40;;;;;;;15.83;82.86;100438.50;4858729;29;20476;-78
2023/07/04 07:21:18;;;;;;;4.97;2.25;;;;;;;15.93;82.39;100427.59;4875558;29;20041;-80
2023/07/04 07:23:45;;;;;;;4.47;3.38;;;;;;;16.08;81.62;100435.00;4864340;29;20056;-78
2023/07/04 07:26:15;;;;;;;5.25;2.55;;;;;;;16.23;81.09;100436.25;4876709;29;20036;-80
2023/07/04 07:28:43;;;;;;;5.28;2.53;;;;;;;16.63;79.73;100440.03;4879713;29;20060;-80
2023/07/04 07:31:20;;;;;;;6.53;3.05;;;;;;;17.06;78.45;100434.91;4880083;29;20044;-84
2023/07/04 07:33:49;;;;;;;5.18;2.80;;;;;;;17.44;76.59;100431.66;4880337;29;20036;-81
2023/07/04 07:36:21;;;;;;;10.15;3.58;;;;;;;17.42;75.56;100447.59;4887436;29;20052;-81
2023/07/04 07:38:49;;;;;;;8.60;2.88;;;;;;;17.27;75.38;100442.91;4888626;29;20044;-79
2023/07/04 07:41:17;;;;;;;3.33;2.20;;;;;;;17.18;75.48;100454.72;4877726;29;20050;-81
2023/07/04 07:43:44;;;;;;;5.47;3.33;;;;;;;16.90;76.77;100455.81;4873105;29;20135;-85
2023/07/04 07:46:16;;;;;;;8.32;2.53;;;;;;;16.78;77.15;100449.19;4856510;29;20416;-83
2023/07/04 07:48:43;;;;;;;7.28;2.80;;;;;;;17.02;76.72;100451.81;4880330;29;20100;-78
2023/07/04 07:51:11;;;;;;;4.03;2.05;;;;;;;17.29;75.22;100447.22;4877502;29;20044;-82
2023/07/04 07:53:40;;;;;;;4.10;2.20;;;;;;;17.61;74.39;100454.75;4895578;29;20036;-78
2023/07/04 07:56:09;;;;;;;2.55;1.77;;;;;;;17.77;73.68;100452.34;4886741;29;20039;-78
2023/07/04 07:58:36;;;;;;;2.55;1.65;;;;;;;18.14;70.93;100442.84;4873924;29;20055;-78
2023/07/04 08:01:25;;;;;;;3.13;1.55;;;;;;;17.92;71.82;100472.03;4889757;29;20834;-78
2023/07/04 08:03:52;;;;;;;5.35;2.42;;;;;;;17.69;72.42;100452.66;4883295;29;20047;-78
2023/07/04 08:06:34;;;;;;;5.97;1.75;;;;;;;17.82;72.47;100463.59;4884103;29;20069;-79
2023/07/04 08:09:01;;;;;;;3.53;2.00;;;;;;;18.38;70.96;100462.09;4903799;29;20044;-78
2023/07/04 08:11:29;;;;;;;5.30;1.95;;;;;;;19.25;67.38;100460.78;4883108;29;20488;-81
2023/07/04 08:13:56;;;;;;;3.90;1.70;;;;;;;19.40;65.91;100461.81;4890119;29;20039;-78
2023/07/04 08:16:31;;;;;;;1.67;1.58;;;;;;;19.75;65.67;100464.53;4888312;29;20055;-78
2023/07/04 08:19:00;;;;;;;3.15;1.38;;;;;;;20.27;63.40;100464.56;4879683;29;20429;-78
2023/07/04 08:21:29;;;;;;;3.38;1.52;;;;;;;20.75;60.31;100477.97;4890214;29;20044;-77
2023/07/04 08:23:56;;;;;;;3.72;1.60;;;;;;;20.86;60.09;100460.56;4891153;29;20195;-81
2023/07/04 08:26:26;;;;;;;2.75;1.25;;;;;;;20.46;60.60;100472.41;4890253;29;20043;-79
2023/07/04 08:28:54;;;;;;;4.68;1.85;;;;;;;20.35;60.49;100460.63;4886510;29;20044;-79
2023/07/04 08:31:22;;;;;;;5.90;2.28;;;;;;;20.81;58.39;100450.19;4913589;29;20051;-79
2023/07/04 08:33:49;;;;;;;6.22;1.88;;;;;;;20.66;57.23;100459.81;4897592;29;20032;-79
2023/07/04 08:36:18;;;;;;;4.57;1.13;;;;;;;21.43;54.49;100454.72;4883202;29;20047;-79
2023/07/04 08:38:48;;;;;;;2.67;1.00;;;;;;;21.77;51.36;100463.44;4887098;29;20044;-82
2023/07/04 08:41:56;;;;;;;2.40;0.60;;;;;;;21.74;48.93;100466.28;4880596;29;20040;-80
2023/07/04 08:44:48;;;;;;;2.78;1.20;;;;;;;22.13;48.30;100468.34;4903157;29;20071;-78
2023/07/04 08:47:18;;;;;;;3.65;0.90;;;;;;;21.44;49.65;100478.59;4891016;29;20044;-79
2023/07/04 08:49:54;;;;;;;2.92;1.10;;;;;;;21.19;48.87;100470.31;4870512;29;20052;-79
2023/07/04 08:52:48;;;;;;;4.38;1.08;;;;;;;21.71;46.20;100456.66;4880271;29;20441;-78
2023/07/04 08:55:16;;;;;;;1.95;0.80;;;;;;;22.40;45.62;100472.16;4879774;29;20116;-78
2023/07/04 08:58:01;;;;;;;2.70;0.90;;;;;;;22.19;45.69;100464.47;4899880;29;20051;-78
2023/07/04 09:00:35;;;;;;;4.63;1.25;;;;;;;22.15;45.96;100478.97;4888360;29;20044;-79
2023/07/04 09:03:25;;;;;;;5.55;1.50;;;;;;;22.48;45.23;100477.03;4881790;29;20054;-80
2023/07/04 09:06:30;;;;;;;3.53;1.15;;;;;;;22.68;44.29;100476.63;4897875;29;20043;-79
2023/07/04 09:09:08;;;;;;;6.68;1.33;;;;;;;21.43;47.15;100486.66;4889470;29;20096;-78
2023/07/04 09:11:34;;;;;;;4.85;1.10;;;;;;;20.72;48.79;100501.25;4877899;29;20666;-80
2023/07/04 09:14:09;;;;;;;4.30;1.35;;;;;;;20.96;48.15;100501.69;4893921;29;20053;-78
2023/07/04 09:16:41;;;;;;;3.65;1.25;;;;;;;20.58;49.36;100512.59;4881395;29;20095;-78
2023/07/04 09:19:12;;;;;;;2.00;1.27;;;;;;;20.03;50.54;100503.03;4892090;29;20437;-79
2023/07/04 09:21:39;;;;;;;4.80;1.52;;;;;;;20.23;50.80;100505.50;4893546;29;20040;-78
2023/07/04 09:24:06;;;;;;;4.72;1.27;;;;;;;21.14;47.79;100505.16;4869056;29;20111;-78
2023/07/04 09:26:45;;;;;;;10.45;1.63;;;;;;;22.27;45.14;100504.88;4868174;29;20555;-79
2023/07/04 09:29:15;;;;;;;3.28;1.17;;;;;;;23.91;42.39;100497.22;4896623;29;20045;-77
2023/07/04 09:31:45;;;;;;;7.10;1.30;;;;;;;24.23;39.05;100504.84;4882586;29;20052;-79
2023/07/04 09:34:31;;;;;;;3.25;1.10;;;;;;;24.47;38.73;100495.22;4894822;29;20048;-79
2023/07/04 09:37:02;;;;;;;8.13;1.83;;;;;;;23.75;39.92;100492.03;4912107;29;20111;-79
2023/07/04 09:39:56;;;;;;;9.98;1.90;;;;;;;24.91;37.80;100489.44;4885935;29;20040;-81
2023/07/04 09:42:40;;;;;;;5.10;0.95;;;;;;;25.54;37.23;100488.47;4895516;29;20116;-78
2023/07/04 09:45:14;;;;;;;5.03;1.13;;;;;;;25.79;36.81;100495.56;4875602;29;20037;-81
2023/07/04 09:47:47;;;;;;;3.50;1.77;;;;;;;24.38;38.45;100494.03;4876491;29;20056;-85
2023/07/04 09:50:27;;;;;;;3.88;1.58;;;;;;;24.37;38.58;100484.34;4876553;29;20048;-78
2023/07/04 09:53:09;;;;;;;3.05;1.58;;;;;;;24.60;38.50;100488.91;4890940;29;20040;-78
2023/07/04 09:55:38;;;;;;;6.93;1.33;;;;;;;24.91;37.57;100491.25;4878884;29;20041;-83
2023/07/04 09:58:23;;;;;;;2.80;1.55;;;;;;;24.05;39.00;100485.59;4889316;29;20036;-79
2023/07/04 10:01:15;;;;;;;4.60;1.48;;;;;;;22.88;40.77;100494.06;4874602;29;20040;-77
2023/07/04 10:03:45;;;;;;;7.90;2.17;;;;;;;21.67;43.61;100500.41;4880383;29;20063;-79
2023/07/04 10:06:12;;;;;;;3.03;1.63;;;;;;;20.64;45.67;100518.44;4863712;29;20082;-79
2023/07/04 10:08:55;;;;;;;3.97;2.03;;;;;;;20.06;47.04;100503.72;4869915;29;20052;-78
2023/07/04 10:11:33;;;;;;;5.65;1.20;;;;;;;19.91;48.24;100523.97;4888269;29;20096;-79
2023/07/04 10:14:07;;;;;;;4.75;2.20;;;;;;;20.16;48.15;100526.22;4898201;29;20037;-79
2023/07/04 10:16:35;;;;;;;3.38;1.55;;;;;;;21.03;46.29;100520.84;4882174;29;20089;-78
2023/07/04 10:19:10;;;;;;;2.75;1.63;;;;;;;22.83;42.25;100500.63;4884557;29;20124;-78
2023/07/04 10:21:42;;;;;;;8.23;1.77;;;;;;;23.98;39.33;100502.16;4881101;29;20100;-78
2023/07/04 10:24:10;;;;;;;3.80;1.58;;;;;;;23.92;38.61;100484.69;4881733;29;20040;-79
2023/07/04 10:26:37;;;;;;;3.67;1.95;;;;;;;23.42;39.96;100493.28;4883668;29;20120;-78
2023/07/04 10:29:04;;;;;;;6.05;1.60;;;;;;;22.43;42.15;100491.47;4879324;29;20048;-78
2023/07/04 10:31:31;;;;;;;5.40;2.20;;;;;;;21.51;43.28;100496.88;4885661;29;20044;-80
2023/07/04 10:34:03;;;;;;;5.75;2.00;;;;;;;20.78;45.44;100500.88;4888535;29;20092;-79
2023/07/04 10:36:35;;;;;;;4.78;1.58;;;;;;;20.13;47.65;100498.97;4892371;29;20045;-79
2023/07/04 10:39:08;;;;;;;6.03;1.47;;;;;;;19.65;49.51;100488.03;4895499;29;20041;-81
2023/07/04 10:41:54;;;;;;;3.13;1.93;;;;;;;19.47;50.64;100495.13;4884473;29;20062;-79
2023/07/04 10:44:25;;;;;;;7.13;2.33;;;;;;;19.22;51.35;100500.75;4875679;29;20048;-81
2023/07/04 10:47:03;;;;;;;4.80;1.52;;;;;;;19.07;51.28;100491.72;4870836;29;20170;-79
2023/07/04 10:49:34;;;;;;;3.30;1.58;;;;;;;18.90;51.38;100505.75;4880491;29;20037;-78
2023/07/04 10:52:07;;;;;;;3.45;1.90;;;;;;;18.95;51.24;100504.59;4880331;29;20044;-79
2023/07/04 10:54:34;;;;;;;7.28;2.38;;;;;;;18.98;51.15;100498.31;4888967;29;20032;-81
2023/07/04 10:57:11;;;;;;;8.57;2.00;;;;;;;19.34;49.83;100505.47;4882736;29;20043;-77
2023/07/04 10:59:44;;;;;;;8.55;2.17;;;;;;;19.59;48.70;100504.28;4888929;29;20039;-78
2023/07/04 11:02:34;;;;;;;8.63;2.55;;;;;;;19.72;48.31;100499.22;4862363;29;20041;-78
2023/07/04 11:05:10;;;;;;;5.30;1.92;;;;;;;19.69;48.77;100494.06;4880688;29;20127;-78
2023/07/04 11:07:40;;;;;;;5.40;2.00;;;;;;;19.35;49.75;100507.19;4870392;29;20044;-79
2023/07/04 11:10:09;;;;;;;4.72;2.55;;;;;;;19.07;50.83;100502.31;4895835;29;20040;-78
2023/07/04 11:12:37;;;;;;;5.30;2.35;;;;;;;18.78;52.10;100517.75;4896115;29;20124;-78
2023/07/04 11:15:20;;;;;;;5.95;2.88;;;;;;;18.54;52.81;100510.00;4880836;29;20048;-78
2023/07/04 11:17:47;;;;;;;5.45;2.72;;;;;;;18.44;53.29;100498.91;4888947;29;20052;-78
2023/07/04 11:20:30;;;;;;;5.30;2.83;;;;;;;18.73;53.25;100502.03;4897451;29;20049;-77
2023/07/04 11:23:03;;;;;;;6.32;2.65;;;;;;;19.64;51.06;100495.13;4880956;29;20044;-79
2023/07/04 11:25:41;;;;;;;6.72;2.63;;;;;;;20.49;48.87;100500.63;4880150;29;20071;-79
2023/07/04 11:28:25;;;;;;;6.68;3.60;;;;;;;20.58;47.86;100504.59;4901068;29;20041;-78
2023/07/04 11:30:53;;;;;;;8.38;2.83;;;;;;;20.38;48.48;100500.34;4869085;29;20111;-80
2023/07/04 11:33:50;;;;;;;5.45;2.08;;;;;;;20.28;49.02;100502.63;4883932;29;20114;-79
2023/07/04 11:36:26;;;;;;;7.95;2.60;;;;;;;19.91;49.15;100496.53;4902899;29;20060;-78
2023/07/04 11:39:07;;;;;;;3.58;1.98;;;;;;;19.58;50.47;100503.44;4908149;29;20074;-81
2023/07/04 11:41:40;;;;;;;4.70;1.95;;;;;;;19.43;51.22;100497.06;4881573;29;20069;-81